sensor_id;sensor_type;location;lat;lon;timestamp;P1;durP1;ratioP1;P2;durP2;ratioP2
24559;SDS011;12727;49.934;8.656;2023-02-01T00:01:21;7.00;;;5.30;;
24559;SDS011;12727;49.934;8.656;2023-02-01T00:03:47;8.00;;;5.80;;
24559;SDS011;12727;49.934;8.656;2023-02-01T00:06:12;8.10;;;5.57;;
24559;SDS011;12727;49.934;8.656;2023-02-01T00:08:38;8.93;;;5.28;;
24559;SDS011;12727;49.934;8.656;2023-02-01T00:11:04;9.95;;;6.25;;
24559;SDS011;12727;49.934;8.656;2023-02-01T00:13:32;10.95;;;5.45;;
24559;SDS011;12727;49.934;8.656;2023-02-01T00:16:04;7.03;;;5.18;;
24559;SDS011;12727;49.934;8.656;2023-02-01T00:18:30;9.27;;;5.22;;
24559;SDS011;12727;49.934;8.656;2023-02-01T00:20:56;7.13;;;4.25;;
24559;SDS011;12727;49.934;8.656;2023-02-01T00:23:22;7.93;;;5.25;;
24559;SDS011;12727;49.934;8.656;2023-02-01T00:25:48;7.72;;;4.90;;
24559;SDS011;12727;49.934;8.656;2023-02-01T00:28:13;8.55;;;4.95;;
24559;SDS011;12727;49.934;8.656;2023-02-01T00:30:39;7.32;;;5.25;;
24559;SDS011;12727;49.934;8.656;2023-02-01T00:33:04;11.13;;;5.95;;
24559;SDS011;12727;49.934;8.656;2023-02-01T00:35:30;9.07;;;6.28;;
24559;SDS011;12727;49.934;8.656;2023-02-01T00:37:55;8.25;;;4.85;;
24559;SDS011;12727;49.934;8.656;2023-02-01T00:40:24;10.43;;;4.75;;
24559;SDS011;12727;49.934;8.656;2023-02-01T00:42:49;10.00;;;5.97;;
24559;SDS011;12727;49.934;8.656;2023-02-01T00:45:15;9.15;;;6.28;;
24559;SDS011;12727;49.934;8.656;2023-02-01T00:47:40;10.20;;;6.20;;
24559;SDS011;12727;49.934;8.656;2023-02-01T00:50:06;11.80;;;6.15;;
24559;SDS011;12727;49.934;8.656;2023-02-01T00:52:32;7.53;;;5.55;;
24559;SDS011;12727;49.934;8.656;2023-02-01T00:54:58;9.75;;;6.53;;
24559;SDS011;12727;49.934;8.656;2023-02-01T00:57:23;13.27;;;7.07;;
24559;SDS011;12727;49.934;8.656;2023-02-01T00:59:49;12.27;;;7.15;;
24559;SDS011;12727;49.934;8.656;2023-02-01T01:02:15;12.23;;;7.28;;
24559;SDS011;12727;49.934;8.656;2023-02-01T01:04:40;9.73;;;6.90;;
24559;SDS011;12727;49.934;8.656;2023-02-01T01:07:06;13.88;;;6.82;;
24559;SDS011;12727;49.934;8.656;2023-02-01T01:09:31;10.82;;;6.43;;
24559;SDS011;12727;49.934;8.656;2023-02-01T01:11:57;10.45;;;6.93;;
24559;SDS011;12727;49.934;8.656;2023-02-01T01:14:27;8.73;;;6.22;;
24559;SDS011;12727;49.934;8.656;2023-02-01T01:16:56;13.07;;;8.13;;
24559;SDS011;12727;49.934;8.656;2023-02-01T01:19:23;14.95;;;8.10;;
24559;SDS011;12727;49.934;8.656;2023-02-01T01:21:48;11.23;;;7.45;;
24559;SDS011;12727;49.934;8.656;2023-02-01T01:24:14;12.68;;;7.38;;
24559;SDS011;12727;49.934;8.656;2023-02-01T01:26:40;10.95;;;7.18;;
24559;SDS011;12727;49.934;8.656;2023-02-01T01:29:05;11.38;;;7.47;;
24559;SDS011;12727;49.934;8.656;2023-02-01T01:31:31;10.98;;;6.53;;
24559;SDS011;12727;49.934;8.656;2023-02-01T01:33:58;8.93;;;7.00;;
24559;SDS011;12727;49.934;8.656;2023-02-01T01:36:24;10.60;;;5.75;;
24559;SDS011;12727;49.934;8.656;2023-02-01T01:38:51;10.43;;;7.00;;
24559;SDS011;12727;49.934;8.656;2023-02-01T01:41:24;12.45;;;7.07;;
24559;SDS011;12727;49.934;8.656;2023-02-01T01:43:57;11.82;;;7.00;;
24559;SDS011;12727;49.934;8.656;2023-02-01T01:46:30;8.38;;;5.55;;
24559;SDS011;12727;49.934;8.656;2023-02-01T01:49:19;10.85;;;6.75;;
24559;SDS011;12727;49.934;8.656;2023-02-01T01:51:54;11.80;;;7.25;;
24559;SDS011;12727;49.934;8.656;2023-02-01T01:54:27;10.35;;;7.18;;
24559;SDS011;12727;49.934;8.656;2023-02-01T01:56:58;9.27;;;6.45;;
24559;SDS011;12727;49.934;8.656;2023-02-01T01:59:28;7.78;;;5.40;;
24559;SDS011;12727;49.934;8.656;2023-02-01T02:01:57;13.13;;;8.02;;
24559;SDS011;12727;49.934;8.656;2023-02-01T02:04:23;12.55;;;6.72;;
24559;SDS011;12727;49.934;8.656;2023-02-01T02:09:17;12.10;;;6.82;;
24559;SDS011;12727;49.934;8.656;2023-02-01T02:11:43;10.80;;;6.80;;
24559;SDS011;12727;49.934;8.656;2023-02-01T02:14:09;13.57;;;7.18;;
24559;SDS011;12727;49.934;8.656;2023-02-01T02:16:50;15.27;;;7.72;;
24559;SDS011;12727;49.934;8.656;2023-02-01T02:27:51;14.98;;;8.30;;
24559;SDS011;12727;49.934;8.656;2023-02-01T02:33:20;15.43;;;9.10;;
24559;SDS011;12727;49.934;8.656;2023-02-01T02:36:19;15.95;;;8.73;;
24559;SDS011;12727;49.934;8.656;2023-02-01T02:45:07;13.15;;;8.60;;
24559;SDS011;12727;49.934;8.656;2023-02-01T02:50:54;17.45;;;9.35;;
24559;SDS011;12727;49.934;8.656;2023-02-01T02:53:51;20.08;;;10.25;;
24559;SDS011;12727;49.934;8.656;2023-02-01T02:56:41;13.37;;;8.63;;
24559;SDS011;12727;49.934;8.656;2023-02-01T02:59:26;17.10;;;9.90;;
24559;SDS011;12727;49.934;8.656;2023-02-01T03:02:12;8.23;;;5.80;;
24559;SDS011;12727;49.934;8.656;2023-02-01T03:04:58;7.72;;;3.20;;
24559;SDS011;12727;49.934;8.656;2023-02-01T03:10:18;4.63;;;2.10;;
24559;SDS011;12727;49.934;8.656;2023-02-01T03:13:05;11.77;;;6.75;;
24559;SDS011;12727;49.934;8.656;2023-02-01T03:15:40;11.38;;;6.00;;
24559;SDS011;12727;49.934;8.656;2023-02-01T03:18:16;10.20;;;6.00;;
24559;SDS011;12727;49.934;8.656;2023-02-01T03:20:47;11.25;;;6.43;;
24559;SDS011;12727;49.934;8.656;2023-02-01T03:23:17;11.55;;;6.93;;
24559;SDS011;12727;49.934;8.656;2023-02-01T03:25:47;10.60;;;5.88;;
24559;SDS011;12727;49.934;8.656;2023-02-01T03:28:16;11.80;;;7.10;;
24559;SDS011;12727;49.934;8.656;2023-02-01T03:30:46;12.73;;;7.10;;
24559;SDS011;12727;49.934;8.656;2023-02-01T03:33:17;11.07;;;6.50;;
24559;SDS011;12727;49.934;8.656;2023-02-01T03:35:59;12.05;;;8.30;;
24559;SDS011;12727;49.934;8.656;2023-02-01T03:38:43;12.07;;;7.75;;
24559;SDS011;12727;49.934;8.656;2023-02-01T03:41:27;14.93;;;8.15;;
24559;SDS011;12727;49.934;8.656;2023-02-01T03:43:54;14.93;;;8.20;;
24559;SDS011;12727;49.934;8.656;2023-02-01T03:46:30;12.80;;;8.52;;
24559;SDS011;12727;49.934;8.656;2023-02-01T03:49:01;16.58;;;8.60;;
24559;SDS011;12727;49.934;8.656;2023-02-01T03:51:31;14.60;;;8.52;;
24559;SDS011;12727;49.934;8.656;2023-02-01T03:53:57;15.75;;;8.70;;
24559;SDS011;12727;49.934;8.656;2023-02-01T03:56:25;14.95;;;8.60;;
24559;SDS011;12727;49.934;8.656;2023-02-01T03:58:54;18.23;;;9.30;;
24559;SDS011;12727;49.934;8.656;2023-02-01T04:01:26;19.95;;;10.32;;
24559;SDS011;12727;49.934;8.656;2023-02-01T04:03:54;17.67;;;10.00;;
24559;SDS011;12727;49.934;8.656;2023-02-01T04:06:20;16.77;;;9.75;;
24559;SDS011;12727;49.934;8.656;2023-02-01T04:08:45;21.55;;;10.27;;
24559;SDS011;12727;49.934;8.656;2023-02-01T04:11:11;19.27;;;9.93;;
24559;SDS011;12727;49.934;8.656;2023-02-01T04:13:37;15.45;;;8.93;;
24559;SDS011;12727;49.934;8.656;2023-02-01T04:16:03;17.13;;;9.23;;
24559;SDS011;12727;49.934;8.656;2023-02-01T04:18:29;12.15;;;8.15;;
24559;SDS011;12727;49.934;8.656;2023-02-01T04:20:54;14.20;;;8.57;;
24559;SDS011;12727;49.934;8.656;2023-02-01T04:23:20;17.02;;;10.02;;
24559;SDS011;12727;49.934;8.656;2023-02-01T04:25:45;14.70;;;8.05;;
24559;SDS011;12727;49.934;8.656;2023-02-01T04:28:11;16.92;;;8.60;;
24559;SDS011;12727;49.934;8.656;2023-02-01T04:30:37;14.10;;;8.25;;
24559;SDS011;12727;49.934;8.656;2023-02-01T04:33:03;15.23;;;8.30;;
24559;SDS011;12727;49.934;8.656;2023-02-01T04:35:31;15.32;;;8.45;;
24559;SDS011;12727;49.934;8.656;2023-02-01T04:37:57;11.32;;;6.78;;
24559;SDS011;12727;49.934;8.656;2023-02-01T04:40:22;14.60;;;8.55;;
24559;SDS011;12727;49.934;8.656;2023-02-01T04:42:48;12.52;;;6.80;;
24559;SDS011;12727;49.934;8.656;2023-02-01T04:45:13;12.13;;;6.90;;
24559;SDS011;12727;49.934;8.656;2023-02-01T04:47:39;12.70;;;6.88;;
24559;SDS011;12727;49.934;8.656;2023-02-01T04:50:05;13.00;;;5.40;;
24559;SDS011;12727;49.934;8.656;2023-02-01T04:52:32;9.60;;;6.32;;
24559;SDS011;12727;49.934;8.656;2023-02-01T04:54:57;10.52;;;6.40;;
24559;SDS011;12727;49.934;8.656;2023-02-01T04:57:25;9.55;;;5.93;;
24559;SDS011;12727;49.934;8.656;2023-02-01T04:59:51;9.82;;;6.60;;
24559;SDS011;12727;49.934;8.656;2023-02-01T05:02:16;12.57;;;6.55;;
24559;SDS011;12727;49.934;8.656;2023-02-01T05:04:42;9.60;;;5.72;;
24559;SDS011;12727;49.934;8.656;2023-02-01T05:07:07;10.13;;;6.07;;
24559;SDS011;12727;49.934;8.656;2023-02-01T05:09:33;10.80;;;5.47;;
24559;SDS011;12727;49.934;8.656;2023-02-01T05:11:58;8.02;;;5.50;;
24559;SDS011;12727;49.934;8.656;2023-02-01T05:17:08;12.43;;;5.65;;
24559;SDS011;12727;49.934;8.656;2023-02-01T05:19:34;7.32;;;4.68;;
24559;SDS011;12727;49.934;8.656;2023-02-01T05:21:59;10.63;;;4.95;;
24559;SDS011;12727;49.934;8.656;2023-02-01T05:24:25;8.90;;;5.07;;
24559;SDS011;12727;49.934;8.656;2023-02-01T05:26:52;9.80;;;4.10;;
24559;SDS011;12727;49.934;8.656;2023-02-01T05:29:17;12.25;;;4.72;;
24559;SDS011;12727;49.934;8.656;2023-02-01T05:31:47;12.18;;;3.75;;
24559;SDS011;12727;49.934;8.656;2023-02-01T05:34:13;6.25;;;3.33;;
24559;SDS011;12727;49.934;8.656;2023-02-01T05:36:39;5.32;;;3.17;;
24559;SDS011;12727;49.934;8.656;2023-02-01T05:39:05;7.85;;;3.50;;
24559;SDS011;12727;49.934;8.656;2023-02-01T05:41:31;6.43;;;2.78;;
24559;SDS011;12727;49.934;8.656;2023-02-01T05:43:56;4.75;;;2.85;;
24559;SDS011;12727;49.934;8.656;2023-02-01T05:46:22;10.15;;;3.10;;
24559;SDS011;12727;49.934;8.656;2023-02-01T05:48:48;6.80;;;2.63;;
24559;SDS011;12727;49.934;8.656;2023-02-01T05:51:13;9.85;;;2.75;;
24559;SDS011;12727;49.934;8.656;2023-02-01T05:53:39;11.77;;;2.60;;
24559;SDS011;12727;49.934;8.656;2023-02-01T05:56:05;10.60;;;3.17;;
24559;SDS011;12727;49.934;8.656;2023-02-01T05:58:34;5.78;;;2.22;;
24559;SDS011;12727;49.934;8.656;2023-02-01T06:01:00;9.82;;;2.20;;
24559;SDS011;12727;49.934;8.656;2023-02-01T06:03:26;8.77;;;2.78;;
24559;SDS011;12727;49.934;8.656;2023-02-01T06:05:52;6.05;;;2.28;;
24559;SDS011;12727;49.934;8.656;2023-02-01T06:08:18;7.88;;;2.50;;
24559;SDS011;12727;49.934;8.656;2023-02-01T06:10:43;6.75;;;2.13;;
24559;SDS011;12727;49.934;8.656;2023-02-01T06:13:09;6.75;;;2.08;;
24559;SDS011;12727;49.934;8.656;2023-02-01T06:15:35;6.63;;;2.60;;
24559;SDS011;12727;49.934;8.656;2023-02-01T06:18:02;5.03;;;2.20;;
24559;SDS011;12727;49.934;8.656;2023-02-01T06:20:28;4.45;;;1.73;;
24559;SDS011;12727;49.934;8.656;2023-02-01T06:22:54;4.10;;;1.67;;
24559;SDS011;12727;49.934;8.656;2023-02-01T06:25:20;6.15;;;2.13;;
24559;SDS011;12727;49.934;8.656;2023-02-01T06:27:46;7.00;;;1.92;;
24559;SDS011;12727;49.934;8.656;2023-02-01T06:30:12;3.30;;;1.38;;
24559;SDS011;12727;49.934;8.656;2023-02-01T06:32:40;6.60;;;1.70;;
24559;SDS011;12727;49.934;8.656;2023-02-01T06:35:07;4.55;;;1.55;;
24559;SDS011;12727;49.934;8.656;2023-02-01T06:37:36;4.88;;;1.58;;
24559;SDS011;12727;49.934;8.656;2023-02-01T06:40:02;5.28;;;1.55;;
24559;SDS011;12727;49.934;8.656;2023-02-01T06:42:28;5.07;;;1.60;;
24559;SDS011;12727;49.934;8.656;2023-02-01T06:44:53;6.97;;;1.63;;
24559;SDS011;12727;49.934;8.656;2023-02-01T06:47:19;4.03;;;1.58;;
24559;SDS011;12727;49.934;8.656;2023-02-01T06:49:45;6.20;;;1.80;;
24559;SDS011;12727;49.934;8.656;2023-02-01T06:52:11;5.90;;;3.40;;
24559;SDS011;12727;49.934;8.656;2023-02-01T06:54:36;4.15;;;2.30;;
24559;SDS011;12727;49.934;8.656;2023-02-01T06:57:02;5.65;;;2.47;;
24559;SDS011;12727;49.934;8.656;2023-02-01T06:59:28;5.82;;;2.00;;
24559;SDS011;12727;49.934;8.656;2023-02-01T07:01:54;9.13;;;4.47;;
24559;SDS011;12727;49.934;8.656;2023-02-01T07:04:19;8.38;;;3.03;;
24559;SDS011;12727;49.934;8.656;2023-02-01T07:06:45;9.90;;;3.72;;
24559;SDS011;12727;49.934;8.656;2023-02-01T07:09:11;6.53;;;2.55;;
24559;SDS011;12727;49.934;8.656;2023-02-01T07:11:38;7.57;;;2.55;;
24559;SDS011;12727;49.934;8.656;2023-02-01T07:14:08;7.60;;;2.45;;
24559;SDS011;12727;49.934;8.656;2023-02-01T07:16:34;10.88;;;3.20;;
24559;SDS011;12727;49.934;8.656;2023-02-01T07:19:00;11.15;;;3.28;;
24559;SDS011;12727;49.934;8.656;2023-02-01T07:21:26;10.80;;;2.70;;
24559;SDS011;12727;49.934;8.656;2023-02-01T07:23:53;10.77;;;2.75;;
24559;SDS011;12727;49.934;8.656;2023-02-01T07:26:20;13.18;;;2.60;;
24559;SDS011;12727;49.934;8.656;2023-02-01T07:28:46;9.50;;;2.92;;
24559;SDS011;12727;49.934;8.656;2023-02-01T07:31:13;6.15;;;2.60;;
24559;SDS011;12727;49.934;8.656;2023-02-01T07:33:43;10.50;;;3.00;;
24559;SDS011;12727;49.934;8.656;2023-02-01T07:36:13;9.20;;;2.63;;
24559;SDS011;12727;49.934;8.656;2023-02-01T07:38:41;7.13;;;2.65;;
24559;SDS011;12727;49.934;8.656;2023-02-01T07:41:07;6.03;;;2.45;;
24559;SDS011;12727;49.934;8.656;2023-02-01T07:43:33;8.88;;;3.40;;
24559;SDS011;12727;49.934;8.656;2023-02-01T07:45:59;7.90;;;3.42;;
24559;SDS011;12727;49.934;8.656;2023-02-01T07:48:26;11.43;;;3.10;;
24559;SDS011;12727;49.934;8.656;2023-02-01T07:53:32;13.05;;;3.40;;
24559;SDS011;12727;49.934;8.656;2023-02-01T07:55:58;6.72;;;2.85;;
24559;SDS011;12727;49.934;8.656;2023-02-01T07:58:24;7.90;;;3.03;;
24559;SDS011;12727;49.934;8.656;2023-02-01T08:00:51;7.90;;;3.30;;
24559;SDS011;12727;49.934;8.656;2023-02-01T08:03:35;11.30;;;3.47;;
24559;SDS011;12727;49.934;8.656;2023-02-01T08:06:01;8.80;;;3.08;;
24559;SDS011;12727;49.934;8.656;2023-02-01T08:08:28;9.25;;;3.00;;
24559;SDS011;12727;49.934;8.656;2023-02-01T08:10:57;9.45;;;3.33;;
24559;SDS011;12727;49.934;8.656;2023-02-01T08:13:27;9.73;;;2.83;;
24559;SDS011;12727;49.934;8.656;2023-02-01T08:15:57;8.05;;;3.08;;
24559;SDS011;12727;49.934;8.656;2023-02-01T08:18:27;8.90;;;2.78;;
24559;SDS011;12727;49.934;8.656;2023-02-01T08:20:52;8.85;;;3.03;;
24559;SDS011;12727;49.934;8.656;2023-02-01T08:23:18;7.22;;;2.65;;
24559;SDS011;12727;49.934;8.656;2023-02-01T08:25:45;8.80;;;2.35;;
24559;SDS011;12727;49.934;8.656;2023-02-01T08:28:11;11.98;;;2.83;;
24559;SDS011;12727;49.934;8.656;2023-02-01T08:30:37;10.20;;;2.88;;
24559;SDS011;12727;49.934;8.656;2023-02-01T08:33:04;11.70;;;3.10;;
24559;SDS011;12727;49.934;8.656;2023-02-01T08:35:31;6.45;;;2.67;;
24559;SDS011;12727;49.934;8.656;2023-02-01T08:37:59;8.93;;;3.28;;
24559;SDS011;12727;49.934;8.656;2023-02-01T08:40:24;8.77;;;3.67;;
24559;SDS011;12727;49.934;8.656;2023-02-01T08:42:50;7.35;;;2.88;;
24559;SDS011;12727;49.934;8.656;2023-02-01T08:45:16;8.75;;;2.97;;
24559;SDS011;12727;49.934;8.656;2023-02-01T08:47:53;8.60;;;2.90;;
24559;SDS011;12727;49.934;8.656;2023-02-01T08:50:19;12.40;;;3.05;;
24559;SDS011;12727;49.934;8.656;2023-02-01T08:52:45;7.53;;;2.50;;
24559;SDS011;12727;49.934;8.656;2023-02-01T08:55:11;10.05;;;3.00;;
24559;SDS011;12727;49.934;8.656;2023-02-01T08:57:38;8.90;;;2.42;;
24559;SDS011;12727;49.934;8.656;2023-02-01T09:00:04;9.82;;;3.13;;
24559;SDS011;12727;49.934;8.656;2023-02-01T09:02:30;9.90;;;2.67;;
24559;SDS011;12727;49.934;8.656;2023-02-01T09:04:56;12.30;;;2.97;;
24559;SDS011;12727;49.934;8.656;2023-02-01T09:07:22;8.77;;;3.00;;
24559;SDS011;12727;49.934;8.656;2023-02-01T09:09:47;10.07;;;2.92;;
24559;SDS011;12727;49.934;8.656;2023-02-01T09:12:13;7.85;;;2.15;;
24559;SDS011;12727;49.934;8.656;2023-02-01T09:14:39;10.25;;;2.90;;
24559;SDS011;12727;49.934;8.656;2023-02-01T09:17:06;10.05;;;2.90;;
24559;SDS011;12727;49.934;8.656;2023-02-01T09:19:31;13.27;;;3.55;;
24559;SDS011;12727;49.934;8.656;2023-02-01T09:21:57;12.75;;;3.10;;
24559;SDS011;12727;49.934;8.656;2023-02-01T09:24:23;10.52;;;3.00;;
24559;SDS011;12727;49.934;8.656;2023-02-01T09:26:49;12.00;;;3.67;;
24559;SDS011;12727;49.934;8.656;2023-02-01T09:29:15;13.32;;;3.42;;
24559;SDS011;12727;49.934;8.656;2023-02-01T09:31:41;14.77;;;3.40;;
24559;SDS011;12727;49.934;8.656;2023-02-01T09:34:07;15.48;;;3.40;;
24559;SDS011;12727;49.934;8.656;2023-02-01T09:36:33;10.25;;;2.28;;
24559;SDS011;12727;49.934;8.656;2023-02-01T09:39:00;15.20;;;2.17;;
24559;SDS011;12727;49.934;8.656;2023-02-01T09:46:47;11.57;;;2.03;;
24559;SDS011;12727;49.934;8.656;2023-02-01T09:49:18;12.02;;;2.22;;
24559;SDS011;12727;49.934;8.656;2023-02-01T09:51:48;13.25;;;2.47;;
24559;SDS011;12727;49.934;8.656;2023-02-01T09:54:20;11.02;;;2.90;;
24559;SDS011;12727;49.934;8.656;2023-02-01T09:57:00;12.35;;;2.30;;
24559;SDS011;12727;49.934;8.656;2023-02-01T10:02:20;11.00;;;2.00;;
24559;SDS011;12727;49.934;8.656;2023-02-01T10:04:52;9.95;;;1.75;;
24559;SDS011;12727;49.934;8.656;2023-02-01T10:10:05;10.00;;;2.20;;
24559;SDS011;12727;49.934;8.656;2023-02-01T10:15:35;12.95;;;2.22;;
24559;SDS011;12727;49.934;8.656;2023-02-01T10:26:39;9.13;;;2.22;;
24559;SDS011;12727;49.934;8.656;2023-02-01T10:29:17;7.55;;;1.90;;
24559;SDS011;12727;49.934;8.656;2023-02-01T10:31:46;10.27;;;2.17;;
24559;SDS011;12727;49.934;8.656;2023-02-01T10:34:22;10.05;;;2.17;;
24559;SDS011;12727;49.934;8.656;2023-02-01T10:37:07;15.30;;;1.92;;
24559;SDS011;12727;49.934;8.656;2023-02-01T10:39:45;14.15;;;2.65;;
24559;SDS011;12727;49.934;8.656;2023-02-01T10:42:13;11.45;;;1.95;;
24559;SDS011;12727;49.934;8.656;2023-02-01T10:44:41;11.82;;;2.50;;
24559;SDS011;12727;49.934;8.656;2023-02-01T10:47:10;10.10;;;2.10;;
24559;SDS011;12727;49.934;8.656;2023-02-01T10:49:38;9.20;;;2.40;;
24559;SDS011;12727;49.934;8.656;2023-02-01T10:54:39;19.88;;;5.22;;
24559;SDS011;12727;49.934;8.656;2023-02-01T10:57:11;11.32;;;2.45;;
24559;SDS011;12727;49.934;8.656;2023-02-01T10:59:50;12.15;;;2.58;;
24559;SDS011;12727;49.934;8.656;2023-02-01T11:05:00;12.70;;;2.00;;
24559;SDS011;12727;49.934;8.656;2023-02-01T11:07:30;13.15;;;2.35;;
24559;SDS011;12727;49.934;8.656;2023-02-01T11:09:57;4.40;;;1.00;;
24559;SDS011;12727;49.934;8.656;2023-02-01T11:12:28;11.30;;;2.05;;
24559;SDS011;12727;49.934;8.656;2023-02-01T11:17:45;7.20;;;1.60;;
24559;SDS011;12727;49.934;8.656;2023-02-01T11:20:17;10.32;;;2.17;;
24559;SDS011;12727;49.934;8.656;2023-02-01T11:22:59;7.10;;;1.77;;
24559;SDS011;12727;49.934;8.656;2023-02-01T11:25:27;11.13;;;2.15;;
24559;SDS011;12727;49.934;8.656;2023-02-01T11:27:54;10.63;;;2.42;;
24559;SDS011;12727;49.934;8.656;2023-02-01T11:30:34;8.80;;;1.77;;
24559;SDS011;12727;49.934;8.656;2023-02-01T11:33:05;11.95;;;1.70;;
24559;SDS011;12727;49.934;8.656;2023-02-01T11:35:37;13.73;;;2.38;;
24559;SDS011;12727;49.934;8.656;2023-02-01T11:38:11;11.45;;;1.85;;
24559;SDS011;12727;49.934;8.656;2023-02-01T11:40:44;9.77;;;1.92;;
24559;SDS011;12727;49.934;8.656;2023-02-01T11:43:19;9.80;;;2.13;;
24559;SDS011;12727;49.934;8.656;2023-02-01T11:45:59;9.52;;;2.05;;
24559;SDS011;12727;49.934;8.656;2023-02-01T11:48:27;13.98;;;2.30;;
24559;SDS011;12727;49.934;8.656;2023-02-01T11:56:19;8.35;;;1.77;;
24559;SDS011;12727;49.934;8.656;2023-02-01T12:01:43;12.18;;;2.17;;
24559;SDS011;12727;49.934;8.656;2023-02-01T12:12:56;8.02;;;1.42;;
24559;SDS011;12727;49.934;8.656;2023-02-01T12:20:58;9.95;;;2.05;;
24559;SDS011;12727;49.934;8.656;2023-02-01T12:23:42;6.38;;;1.60;;
24559;SDS011;12727;49.934;8.656;2023-02-01T12:29:04;8.95;;;2.03;;
24559;SDS011;12727;49.934;8.656;2023-02-01T12:32:02;4.43;;;1.10;;
24559;SDS011;12727;49.934;8.656;2023-02-01T12:40:01;10.50;;;1.73;;
24559;SDS011;12727;49.934;8.656;2023-02-01T12:42:41;9.05;;;2.38;;
24559;SDS011;12727;49.934;8.656;2023-02-01T12:50:39;7.80;;;1.40;;
24559;SDS011;12727;49.934;8.656;2023-02-01T12:53:22;9.02;;;1.85;;
24559;SDS011;12727;49.934;8.656;2023-02-01T12:55:55;5.25;;;1.23;;
24559;SDS011;12727;49.934;8.656;2023-02-01T12:58:45;10.95;;;1.60;;
24559;SDS011;12727;49.934;8.656;2023-02-01T13:04:05;5.57;;;0.85;;
24559;SDS011;12727;49.934;8.656;2023-02-01T13:09:29;9.10;;;1.63;;
24559;SDS011;12727;49.934;8.656;2023-02-01T13:12:29;5.70;;;1.42;;
24559;SDS011;12727;49.934;8.656;2023-02-01T13:15:01;6.30;;;1.70;;
24559;SDS011;12727;49.934;8.656;2023-02-01T13:17:39;6.35;;;1.65;;
24559;SDS011;12727;49.934;8.656;2023-02-01T13:25:35;7.85;;;1.90;;
24559;SDS011;12727;49.934;8.656;2023-02-01T13:31:17;9.77;;;1.70;;
24559;SDS011;12727;49.934;8.656;2023-02-01T13:36:58;9.13;;;1.83;;
24559;SDS011;12727;49.934;8.656;2023-02-01T13:45:25;9.57;;;1.73;;
24559;SDS011;12727;49.934;8.656;2023-02-01T13:47:57;7.18;;;1.55;;
24559;SDS011;12727;49.934;8.656;2023-02-01T13:50:34;3.67;;;0.93;;
24559;SDS011;12727;49.934;8.656;2023-02-01T13:55:45;5.05;;;1.17;;
24559;SDS011;12727;49.934;8.656;2023-02-01T13:58:29;8.88;;;2.05;;
24559;SDS011;12727;49.934;8.656;2023-02-01T14:03:43;10.73;;;2.20;;
24559;SDS011;12727;49.934;8.656;2023-02-01T14:06:53;9.55;;;1.60;;
24559;SDS011;12727;49.934;8.656;2023-02-01T14:11:50;11.88;;;1.90;;
24559;SDS011;12727;49.934;8.656;2023-02-01T14:16:54;9.75;;;1.85;;
24559;SDS011;12727;49.934;8.656;2023-02-01T14:19:36;6.95;;;1.40;;
24559;SDS011;12727;49.934;8.656;2023-02-01T14:24:51;13.85;;;1.95;;
24559;SDS011;12727;49.934;8.656;2023-02-01T14:27:25;8.40;;;2.33;;
24559;SDS011;12727;49.934;8.656;2023-02-01T14:29:56;6.85;;;2.15;;
24559;SDS011;12727;49.934;8.656;2023-02-01T14:32:25;7.65;;;2.25;;
24559;SDS011;12727;49.934;8.656;2023-02-01T14:34:58;8.80;;;2.10;;
24559;SDS011;12727;49.934;8.656;2023-02-01T14:37:27;13.23;;;2.20;;
24559;SDS011;12727;49.934;8.656;2023-02-01T14:40:01;11.70;;;2.00;;
24559;SDS011;12727;49.934;8.656;2023-02-01T14:53:10;9.77;;;1.83;;
24559;SDS011;12727;49.934;8.656;2023-02-01T14:55:45;7.78;;;1.50;;
24559;SDS011;12727;49.934;8.656;2023-02-01T15:00:52;6.63;;;1.33;;
24559;SDS011;12727;49.934;8.656;2023-02-01T15:03:32;6.63;;;1.15;;
24559;SDS011;12727;49.934;8.656;2023-02-01T15:06:03;11.52;;;1.50;;
24559;SDS011;12727;49.934;8.656;2023-02-01T15:08:33;7.30;;;1.42;;
24559;SDS011;12727;49.934;8.656;2023-02-01T15:11:02;7.88;;;1.60;;
24559;SDS011;12727;49.934;8.656;2023-02-01T15:13:39;6.75;;;1.70;;
24559;SDS011;12727;49.934;8.656;2023-02-01T15:16:14;12.00;;;2.58;;
24559;SDS011;12727;49.934;8.656;2023-02-01T15:18:41;13.25;;;3.10;;
24559;SDS011;12727;49.934;8.656;2023-02-01T15:21:14;10.82;;;2.55;;
24559;SDS011;12727;49.934;8.656;2023-02-01T15:23:41;12.25;;;2.58;;
24559;SDS011;12727;49.934;8.656;2023-02-01T15:26:07;9.35;;;1.30;;
24559;SDS011;12727;49.934;8.656;2023-02-01T15:28:32;9.60;;;2.70;;
24559;SDS011;12727;49.934;8.656;2023-02-01T15:30:59;11.85;;;2.20;;
24559;SDS011;12727;49.934;8.656;2023-02-01T15:33:27;6.70;;;1.40;;
24559;SDS011;12727;49.934;8.656;2023-02-01T15:35:55;7.35;;;1.30;;
24559;SDS011;12727;49.934;8.656;2023-02-01T15:38:37;10.60;;;2.15;;
24559;SDS011;12727;49.934;8.656;2023-02-01T15:41:06;7.75;;;1.27;;
24559;SDS011;12727;49.934;8.656;2023-02-01T15:46:47;8.95;;;1.75;;
24559;SDS011;12727;49.934;8.656;2023-02-01T15:49:19;9.90;;;1.85;;
24559;SDS011;12727;49.934;8.656;2023-02-01T15:51:49;10.18;;;1.90;;
24559;SDS011;12727;49.934;8.656;2023-02-01T15:54:17;8.98;;;1.42;;
24559;SDS011;12727;49.934;8.656;2023-02-01T15:56:49;10.88;;;2.03;;
24559;SDS011;12727;49.934;8.656;2023-02-01T15:59:19;11.07;;;2.13;;
24559;SDS011;12727;49.934;8.656;2023-02-01T16:01:47;10.13;;;2.10;;
24559;SDS011;12727;49.934;8.656;2023-02-01T16:04:19;8.80;;;1.70;;
24559;SDS011;12727;49.934;8.656;2023-02-01T16:09:14;10.75;;;2.05;;
24559;SDS011;12727;49.934;8.656;2023-02-01T16:12:03;8.52;;;1.52;;
24559;SDS011;12727;49.934;8.656;2023-02-01T16:14:28;7.22;;;1.58;;
24559;SDS011;12727;49.934;8.656;2023-02-01T16:16:56;8.13;;;1.10;;
24559;SDS011;12727;49.934;8.656;2023-02-01T16:19:30;6.70;;;1.10;;
24559;SDS011;12727;49.934;8.656;2023-02-01T16:21:56;9.15;;;1.70;;
24559;SDS011;12727;49.934;8.656;2023-02-01T16:24:23;9.88;;;1.42;;
24559;SDS011;12727;49.934;8.656;2023-02-01T16:26:50;12.20;;;1.95;;
24559;SDS011;12727;49.934;8.656;2023-02-01T16:29:22;9.43;;;2.13;;
24559;SDS011;12727;49.934;8.656;2023-02-01T16:31:48;9.05;;;1.48;;
24559;SDS011;12727;49.934;8.656;2023-02-01T16:34:15;13.82;;;2.05;;
24559;SDS011;12727;49.934;8.656;2023-02-01T16:36:42;11.02;;;1.92;;
24559;SDS011;12727;49.934;8.656;2023-02-01T16:39:09;10.93;;;1.50;;
24559;SDS011;12727;49.934;8.656;2023-02-01T16:41:36;6.75;;;1.40;;
24559;SDS011;12727;49.934;8.656;2023-02-01T16:44:03;9.20;;;1.90;;
24559;SDS011;12727;49.934;8.656;2023-02-01T16:46:34;10.43;;;1.70;;
24559;SDS011;12727;49.934;8.656;2023-02-01T16:49:04;6.35;;;1.52;;
24559;SDS011;12727;49.934;8.656;2023-02-01T16:51:30;8.93;;;1.30;;
24559;SDS011;12727;49.934;8.656;2023-02-01T16:53:58;4.63;;;0.82;;
24559;SDS011;12727;49.934;8.656;2023-02-01T16:56:28;7.85;;;1.35;;
24559;SDS011;12727;49.934;8.656;2023-02-01T16:58:55;6.35;;;1.48;;
24559;SDS011;12727;49.934;8.656;2023-02-01T17:01:21;10.68;;;2.00;;
24559;SDS011;12727;49.934;8.656;2023-02-01T17:03:47;10.57;;;1.77;;
24559;SDS011;12727;49.934;8.656;2023-02-01T17:06:15;15.57;;;2.22;;
24559;SDS011;12727;49.934;8.656;2023-02-01T17:08:44;5.03;;;1.67;;
24559;SDS011;12727;49.934;8.656;2023-02-01T17:11:12;11.68;;;1.75;;
24559;SDS011;12727;49.934;8.656;2023-02-01T17:13:39;10.38;;;1.63;;
24559;SDS011;12727;49.934;8.656;2023-02-01T17:19:04;9.30;;;1.95;;
24559;SDS011;12727;49.934;8.656;2023-02-01T17:21:38;7.30;;;1.60;;
24559;SDS011;12727;49.934;8.656;2023-02-01T17:24:09;11.02;;;1.75;;
24559;SDS011;12727;49.934;8.656;2023-02-01T17:26:38;7.80;;;1.27;;
24559;SDS011;12727;49.934;8.656;2023-02-01T17:29:03;8.52;;;1.60;;
24559;SDS011;12727;49.934;8.656;2023-02-01T17:31:29;8.77;;;1.42;;